createdAt,value
2022-10-19T00:02:13.121Z,9.67
2022-10-19T00:04:40.042Z,9.67
2022-10-19T00:07:06.861Z,9.67
2022-10-19T00:09:33.669Z,9.65
2022-10-19T00:12:00.581Z,9.63
2022-10-19T00:14:27.388Z,9.57
2022-10-19T00:16:55.663Z,9.43
2022-10-19T00:19:24.261Z,9.46
2022-10-19T00:24:17.965Z,9.40
2022-10-19T00:26:44.800Z,9.37
2022-10-19T00:29:12.803Z,9.46
2022-10-19T00:31:39.720Z,9.49
2022-10-19T00:34:06.581Z,9.55
2022-10-19T00:36:35.404Z,9.58
2022-10-19T00:39:02.720Z,9.63
2022-10-19T00:41:30.740Z,9.60
2022-10-19T00:44:08.240Z,9.69
2022-10-19T00:46:37.200Z,9.68
2022-10-19T00:49:10.900Z,9.60
2022-10-19T00:51:40.080Z,9.55
2022-10-19T00:54:07.021Z,9.57
2022-10-19T00:56:34.043Z,9.53
2022-10-19T00:59:03.240Z,9.60
2022-10-19T01:01:30.172Z,9.62
2022-10-19T01:03:57.100Z,9.68
2022-10-19T01:06:24.263Z,9.72
2022-10-19T01:08:51.082Z,9.81
2022-10-19T01:11:23.907Z,9.88
2022-10-19T01:13:54.461Z,9.93
2022-10-19T01:16:46.204Z,9.96
2022-10-19T01:19:28.523Z,10.00
2022-10-19T01:22:19.624Z,10.04
2022-10-19T01:25:11.638Z,10.02
2022-10-19T01:27:51.361Z,9.95
2022-10-19T01:30:28.744Z,9.84
2022-10-19T01:33:20.141Z,9.84
2022-10-19T01:35:52.840Z,9.83
2022-10-19T01:38:27.069Z,9.84
2022-10-19T01:41:35.521Z,9.84
2022-10-19T01:44:09.788Z,9.78
2022-10-19T01:46:41.259Z,9.69
2022-10-19T01:49:33.643Z,9.65
2022-10-19T01:52:02.562Z,9.52
2022-10-19T01:54:31.141Z,9.47
2022-10-19T01:56:58.980Z,9.42
2022-10-19T01:59:25.820Z,9.39
2022-10-19T02:01:52.939Z,9.33
2022-10-19T02:04:21.061Z,9.26
2022-10-19T02:06:47.886Z,9.30
2022-10-19T02:09:18.282Z,9.33
2022-10-19T02:11:53.363Z,9.33
2022-10-19T02:14:25.701Z,9.39
2022-10-19T02:16:55.301Z,9.43
2022-10-19T02:21:49.003Z,9.62
2022-10-19T02:24:15.841Z,9.66
2022-10-19T02:26:42.742Z,9.68
2022-10-19T02:29:09.740Z,9.78
2022-10-19T02:31:36.561Z,9.80
2022-10-19T02:34:03.399Z,9.88
2022-10-19T02:36:30.240Z,9.90
2022-10-19T02:38:57.043Z,9.96
2022-10-19T02:41:35.380Z,9.99
2022-10-19T02:44:09.559Z,9.97
2022-10-19T02:46:42.567Z,9.99
2022-10-19T02:49:09.706Z,10.03
2022-10-19T02:51:40.782Z,10.03
2022-10-19T02:54:08.164Z,10.09
2022-10-19T02:56:35.139Z,10.10
2022-10-19T02:59:02.662Z,10.11
2022-10-19T03:01:29.460Z,10.11
2022-10-19T03:03:56.341Z,10.10
2022-10-19T03:06:23.683Z,10.10
2022-10-19T03:08:51.040Z,10.02
2022-10-19T03:11:17.840Z,10.11
2022-10-19T03:13:44.831Z,10.14
2022-10-19T03:16:12.390Z,10.10
2022-10-19T03:18:39.480Z,10.15
2022-10-19T03:21:10.780Z,10.16
2022-10-19T03:23:38.040Z,10.15
2022-10-19T03:26:07.611Z,10.17
2022-10-19T03:28:36.942Z,10.18
2022-10-19T03:31:03.759Z,10.21
2022-10-19T03:33:30.542Z,10.23
2022-10-19T03:36:22.219Z,10.24
2022-10-19T03:38:55.741Z,10.24
2022-10-19T03:41:23.339Z,10.25
2022-10-19T03:43:50.325Z,10.24
2022-10-19T03:46:17.301Z,10.26
2022-10-19T03:48:44.241Z,10.21
2022-10-19T03:51:12.952Z,10.27
2022-10-19T03:53:40.721Z,10.21
2022-10-19T03:56:09.400Z,10.27
2022-10-19T03:58:37.001Z,10.26
2022-10-19T04:01:07.417Z,10.23
2022-10-19T04:06:15.810Z,10.24
2022-10-19T04:08:45.180Z,10.24
2022-10-19T04:11:13.521Z,10.22
2022-10-19T04:13:40.443Z,10.20
2022-10-19T04:16:07.781Z,10.15
2022-10-19T04:18:34.603Z,10.10
2022-10-19T04:21:04.923Z,9.93
2022-10-19T04:23:33.623Z,9.98
2022-10-19T04:26:04.548Z,9.97
2022-10-19T04:28:31.446Z,9.94
2022-10-19T04:30:58.340Z,9.98
2022-10-19T04:33:25.180Z,10.03
2022-10-19T04:35:57.584Z,10.04
2022-10-19T04:38:24.408Z,10.06
2022-10-19T04:40:51.322Z,10.04
2022-10-19T04:43:18.182Z,10.01
2022-10-19T04:45:45.020Z,10.01
2022-10-19T04:48:14.960Z,9.98
2022-10-19T04:50:42.136Z,9.95
2022-10-19T04:53:09.044Z,9.92
2022-10-19T04:55:40.964Z,9.89
2022-10-19T04:58:07.900Z,9.87
2022-10-19T05:00:34.948Z,9.80
2022-10-19T05:03:01.804Z,9.75
2022-10-19T05:05:28.619Z,9.67
2022-10-19T05:07:55.441Z,9.58
2022-10-19T05:10:22.244Z,9.56
2022-10-19T05:12:49.042Z,9.50
2022-10-19T05:15:15.924Z,9.47
2022-10-19T05:17:42.763Z,9.50
2022-10-19T05:20:11.407Z,9.48
2022-10-19T05:22:38.962Z,9.42
2022-10-19T05:25:07.129Z,9.43
2022-10-19T05:27:34.639Z,9.39
2022-10-19T05:30:01.642Z,9.42
2022-10-19T05:32:28.781Z,9.42
2022-10-19T05:34:55.560Z,9.45
2022-10-19T05:37:22.647Z,9.50
2022-10-19T05:39:49.422Z,9.54
2022-10-19T05:42:16.240Z,9.58
2022-10-19T05:44:43.104Z,9.60
2022-10-19T05:47:09.920Z,9.61
2022-10-19T05:49:36.802Z,9.68
2022-10-19T05:52:03.743Z,9.68
2022-10-19T05:54:30.630Z,9.75
2022-10-19T05:56:57.462Z,9.77
2022-10-19T05:59:24.345Z,9.72
2022-10-19T06:01:51.405Z,9.86
2022-10-19T06:04:18.343Z,9.93
2022-10-19T06:06:45.941Z,9.97
2022-10-19T06:09:12.922Z,10.01
2022-10-19T06:11:40.787Z,10.06
2022-10-19T06:14:09.739Z,10.11
2022-10-19T06:16:36.622Z,10.13
2022-10-19T06:19:03.623Z,10.11
2022-10-19T06:21:30.882Z,10.08
2022-10-19T06:23:59.463Z,10.06
2022-10-19T06:26:26.524Z,10.14
2022-10-19T06:28:55.611Z,10.21
2022-10-19T06:31:22.400Z,10.20
2022-10-19T06:33:49.756Z,10.14
2022-10-19T06:36:21.860Z,9.99
2022-10-19T06:38:48.898Z,10.29
2022-10-19T06:41:15.883Z,10.63
2022-10-19T06:43:43.602Z,10.96
2022-10-19T06:46:20.571Z,10.94
2022-10-19T06:48:54.670Z,11.48
2022-10-19T06:51:21.801Z,11.97
2022-10-19T06:53:51.671Z,11.82
2022-10-19T06:56:24.609Z,12.28
2022-10-19T06:58:51.660Z,12.14
2022-10-19T07:01:18.600Z,12.07
2022-10-19T07:03:45.582Z,12.10
2022-10-19T07:06:12.822Z,12.34
2022-10-19T07:08:40.521Z,12.27
2022-10-19T07:11:09.719Z,12.33
2022-10-19T07:13:36.606Z,12.34
2022-10-19T07:16:08.521Z,12.33
2022-10-19T07:18:35.802Z,12.23
2022-10-19T07:21:03.922Z,12.07
2022-10-19T07:23:31.578Z,12.11
2022-10-19T07:26:01.899Z,12.09
2022-10-19T07:28:29.580Z,12.09
2022-10-19T07:30:56.540Z,13.25
2022-10-19T07:33:23.485Z,13.57
2022-10-19T07:35:50.344Z,14.36
2022-10-19T07:38:17.180Z,15.46
2022-10-19T07:40:46.562Z,16.57
2022-10-19T07:43:14.482Z,17.65
2022-10-19T07:45:41.324Z,18.29
2022-10-19T07:48:08.202Z,18.82
2022-10-19T07:50:35.024Z,19.29
2022-10-19T07:53:03.599Z,19.87
2022-10-19T07:55:30.421Z,20.44
2022-10-19T07:58:01.567Z,20.96
2022-10-19T08:00:28.599Z,21.43
2022-10-19T08:03:19.353Z,21.82
2022-10-19T08:05:42.501Z,22.03
2022-10-19T08:08:09.302Z,21.77
2022-10-19T08:10:36.141Z,21.15
2022-10-19T08:13:02.980Z,21.30
2022-10-19T08:15:30.330Z,20.65
2022-10-19T08:17:57.201Z,19.24
2022-10-19T08:20:24.022Z,18.07
2022-10-19T08:22:55.038Z,17.20
2022-10-19T08:25:24.989Z,16.52
2022-10-19T08:27:52.634Z,15.95
2022-10-19T08:30:19.480Z,15.46
2022-10-19T08:32:46.302Z,15.22
2022-10-19T08:35:13.120Z,14.96
2022-10-19T08:37:44.744Z,14.83
2022-10-19T08:40:25.801Z,14.74
2022-10-19T08:42:58.399Z,15.54
2022-10-19T08:45:47.067Z,16.81
2022-10-19T08:48:16.822Z,19.23
2022-10-19T08:50:44.282Z,20.58
2022-10-19T08:53:22.544Z,22.08
2022-10-19T08:55:55.259Z,23.32
2022-10-19T08:58:36.881Z,24.61
2022-10-19T09:01:22.440Z,24.46
2022-10-19T09:03:56.306Z,23.50
2022-10-19T09:06:37.684Z,22.31
2022-10-19T09:09:05.121Z,21.38
2022-10-19T09:11:34.964Z,20.08
2022-10-19T09:14:23.652Z,18.99
2022-10-19T09:16:50.485Z,18.15
2022-10-19T09:19:29.520Z,17.36
2022-10-19T09:21:57.221Z,16.62
2022-10-19T09:24:43.781Z,16.47
2022-10-19T09:27:37.040Z,18.89
2022-10-19T09:30:06.267Z,20.85
2022-10-19T09:32:38.103Z,22.44
2022-10-19T09:35:07.705Z,23.70
2022-10-19T09:37:37.584Z,24.75
2022-10-19T09:40:06.042Z,25.31
2022-10-19T09:42:34.049Z,25.77
2022-10-19T09:45:06.721Z,26.17
2022-10-19T09:47:38.390Z,24.25
2022-10-19T09:50:15.003Z,22.41
2022-10-19T09:52:42.642Z,21.31
2022-10-19T09:55:15.859Z,20.30
2022-10-19T09:57:49.910Z,18.79
2022-10-19T10:00:24.341Z,19.54
2022-10-19T10:02:55.227Z,21.90
2022-10-19T10:05:42.338Z,21.12
2022-10-19T10:08:14.517Z,20.47
2022-10-19T10:10:46.621Z,20.81
2022-10-19T10:13:24.502Z,20.76
2022-10-19T10:15:55.022Z,19.82
2022-10-19T10:18:21.923Z,18.98
2022-10-19T10:21:11.442Z,18.29
2022-10-19T10:23:38.421Z,17.80
2022-10-19T10:26:06.321Z,17.30
2022-10-19T10:28:33.181Z,16.89
2022-10-19T10:31:05.082Z,16.93
2022-10-19T10:33:44.248Z,18.72
2022-10-19T10:36:12.099Z,21.05
2022-10-19T10:38:47.562Z,22.89
2022-10-19T10:41:20.271Z,24.54
2022-10-19T10:44:05.022Z,25.20
2022-10-19T10:46:37.280Z,26.15
2022-10-19T10:49:07.824Z,24.45
2022-10-19T10:51:39.017Z,22.49
2022-10-19T10:54:32.444Z,20.48
2022-10-19T10:57:19.934Z,19.23
2022-10-19T10:59:55.681Z,17.80
2022-10-19T11:02:30.662Z,17.23
2022-10-19T11:05:14.343Z,16.87
2022-10-19T11:08:02.743Z,16.61
2022-10-19T11:10:37.683Z,17.53
2022-10-19T11:13:15.361Z,20.25
2022-10-19T11:15:47.841Z,22.93
2022-10-19T11:18:27.745Z,22.70
2022-10-19T11:21:12.661Z,21.66
2022-10-19T11:24:04.002Z,20.51
2022-10-19T11:26:55.275Z,19.33
2022-10-19T11:29:34.661Z,18.52
2022-10-19T11:32:01.587Z,17.97
2022-10-19T11:35:05.843Z,17.39
2022-10-19T11:38:17.547Z,16.79
2022-10-19T11:40:59.665Z,16.61
2022-10-19T11:43:49.310Z,16.53
2022-10-19T11:46:30.900Z,17.71
2022-10-19T11:49:18.661Z,19.49
2022-10-19T11:52:13.104Z,21.90
2022-10-19T11:54:54.267Z,23.70
2022-10-19T11:57:46.902Z,25.22
2022-10-19T12:00:38.314Z,24.91
2022-10-19T12:03:29.330Z,24.37
2022-10-19T12:06:19.267Z,24.48
2022-10-19T12:09:01.071Z,23.13
2022-10-19T12:11:40.150Z,21.55
2022-10-19T12:14:11.580Z,20.32
2022-10-19T12:16:40.619Z,19.12
2022-10-19T12:19:07.544Z,18.22
2022-10-19T12:21:38.480Z,18.93
2022-10-19T12:24:16.622Z,19.61
2022-10-19T12:26:43.440Z,20.11
2022-10-19T12:29:19.904Z,19.69
2022-10-19T12:31:47.065Z,19.10
2022-10-19T12:34:51.024Z,18.29
2022-10-19T12:37:58.242Z,17.64
2022-10-19T12:40:47.860Z,18.70
2022-10-19T12:43:19.271Z,18.29
2022-10-19T12:46:23.403Z,17.89
2022-10-19T12:49:27.903Z,20.10
2022-10-19T12:51:56.244Z,21.62
2022-10-19T12:54:28.518Z,22.34
2022-10-19T12:56:56.741Z,22.87
2022-10-19T12:59:34.183Z,23.61
2022-10-19T13:02:01.761Z,24.02
2022-10-19T13:04:33.063Z,23.15
2022-10-19T13:07:04.563Z,22.85
2022-10-19T13:09:38.371Z,22.50
2022-10-19T13:12:21.527Z,22.32
2022-10-19T13:15:01.036Z,22.28
2022-10-19T13:17:34.358Z,21.86
2022-10-19T13:20:13.314Z,21.52
2022-10-19T13:22:41.004Z,20.89
2022-10-19T13:25:27.287Z,20.16
2022-10-19T13:27:55.185Z,19.43
2022-10-19T13:30:43.543Z,18.54
2022-10-19T13:33:29.167Z,17.30
2022-10-19T13:35:58.940Z,16.19
2022-10-19T13:38:28.830Z,15.22
2022-10-19T13:40:55.642Z,14.55
2022-10-19T13:43:27.641Z,14.13
2022-10-19T13:46:10.881Z,14.02
2022-10-19T13:49:05.305Z,14.08
2022-10-19T13:51:33.701Z,14.24
2022-10-19T13:54:37.602Z,14.40
2022-10-19T13:57:42.090Z,14.49
2022-10-19T14:00:15.941Z,14.39
2022-10-19T14:02:51.205Z,14.19
2022-10-19T14:05:35.761Z,13.86
2022-10-19T14:08:45.048Z,13.38
2022-10-19T14:11:13.325Z,12.94
2022-10-19T14:13:40.304Z,12.54
2022-10-19T14:16:07.224Z,12.21
2022-10-19T14:18:35.465Z,12.12
2022-10-19T14:21:09.305Z,12.02
2022-10-19T14:23:38.248Z,11.94
2022-10-19T14:26:16.942Z,11.92
2022-10-19T14:28:43.780Z,12.06
2022-10-19T14:31:13.325Z,12.03
2022-10-19T14:33:40.762Z,12.00
2022-10-19T14:36:07.841Z,12.11
2022-10-19T14:38:38.561Z,12.16
2022-10-19T14:41:06.065Z,12.11
2022-10-19T14:43:34.362Z,11.97
2022-10-19T14:46:07.253Z,11.81
2022-10-19T14:48:38.440Z,11.62
2022-10-19T14:51:15.139Z,11.45
2022-10-19T14:53:42.021Z,11.34
2022-10-19T14:56:17.803Z,11.13
2022-10-19T14:59:06.003Z,10.89
2022-10-19T15:01:32.890Z,10.68
2022-10-19T15:03:59.745Z,10.57
2022-10-19T15:06:31.222Z,10.61
2022-10-19T15:09:03.453Z,10.64
2022-10-19T15:11:38.282Z,10.81
2022-10-19T15:14:21.962Z,10.87
2022-10-19T15:16:58.151Z,10.86
2022-10-19T15:19:30.801Z,10.68
2022-10-19T15:22:23.791Z,10.66
2022-10-19T15:25:23.840Z,10.40
2022-10-19T15:27:51.180Z,10.22
2022-10-19T15:30:17.921Z,10.04
2022-10-19T15:32:45.742Z,9.91
2022-10-19T15:35:33.561Z,9.74
2022-10-19T15:38:24.499Z,9.62
2022-10-19T15:40:56.880Z,9.52
2022-10-19T15:43:33.528Z,9.43
2022-10-19T15:46:12.518Z,9.33
2022-10-19T15:48:42.926Z,9.25
2022-10-19T15:51:29.125Z,9.17
2022-10-19T15:54:03.546Z,9.03
2022-10-19T15:56:32.088Z,8.99
2022-10-19T15:59:00.029Z,8.92
2022-10-19T16:01:28.394Z,8.83
2022-10-19T16:03:55.502Z,8.71
2022-10-19T16:06:23.447Z,8.59
2022-10-19T16:08:51.396Z,8.48
2022-10-19T16:11:19.203Z,8.26
2022-10-19T16:13:46.143Z,8.09
2022-10-19T16:16:18.345Z,7.91
2022-10-19T16:18:45.142Z,7.76
2022-10-19T16:21:12.004Z,7.67
2022-10-19T16:23:41.876Z,7.59
2022-10-19T16:26:09.183Z,7.61
2022-10-19T16:28:36.023Z,7.59
2022-10-19T16:31:02.986Z,7.70
2022-10-19T16:33:29.762Z,7.78
2022-10-19T16:35:56.622Z,7.84
2022-10-19T16:38:23.442Z,7.88
2022-10-19T16:40:50.261Z,7.92
2022-10-19T16:43:17.061Z,7.95
2022-10-19T16:45:44.008Z,7.94
2022-10-19T16:48:13.706Z,7.92
2022-10-19T16:50:40.593Z,8.01
2022-10-19T16:53:11.561Z,7.96
2022-10-19T16:55:39.846Z,8.02
2022-10-19T16:58:06.782Z,8.04
2022-10-19T17:00:33.863Z,7.99
2022-10-19T17:03:00.638Z,7.91
2022-10-19T17:05:27.501Z,7.77
2022-10-19T17:07:54.333Z,7.56
2022-10-19T17:10:21.186Z,7.50
2022-10-19T17:12:48.045Z,7.31
2022-10-19T17:15:41.610Z,7.18
2022-10-19T17:18:01.684Z,7.11
2022-10-19T17:20:28.515Z,7.09
2022-10-19T17:22:55.333Z,7.08
2022-10-19T17:25:22.127Z,7.14
2022-10-19T17:27:52.228Z,7.13
2022-10-19T17:30:19.042Z,7.21
2022-10-19T17:32:45.892Z,7.21
2022-10-19T17:35:12.746Z,7.16
2022-10-19T17:37:39.595Z,7.10
2022-10-19T17:40:07.296Z,7.05
2022-10-19T17:42:36.564Z,7.03
2022-10-19T17:45:03.593Z,7.01
2022-10-19T17:47:30.695Z,7.02
2022-10-19T17:49:57.645Z,7.10
2022-10-19T17:52:24.424Z,7.15
2022-10-19T17:55:11.076Z,7.13
2022-10-19T17:57:38.254Z,7.23
2022-10-19T18:00:07.200Z,7.27
2022-10-19T18:02:35.610Z,7.33
2022-10-19T18:05:02.689Z,7.30
2022-10-19T18:07:29.533Z,7.37
2022-10-19T18:09:56.358Z,7.35
2022-10-19T18:12:23.232Z,7.38
2022-10-19T18:14:50.037Z,7.30
2022-10-19T18:17:16.881Z,7.28
2022-10-19T18:19:43.685Z,7.22
2022-10-19T18:22:10.570Z,7.15
2022-10-19T18:24:37.396Z,7.13
2022-10-19T18:27:04.214Z,7.09
2022-10-19T18:29:31.011Z,7.06
2022-10-19T18:31:57.921Z,7.11
2022-10-19T18:34:25.780Z,7.09
2022-10-19T18:36:52.715Z,7.04
2022-10-19T18:39:19.486Z,7.13
2022-10-19T18:41:46.400Z,7.15
2022-10-19T18:44:13.410Z,7.11
2022-10-19T18:46:40.196Z,7.11
2022-10-19T18:49:08.274Z,7.11
2022-10-19T18:51:35.227Z,7.13
2022-10-19T18:54:02.112Z,7.15
2022-10-19T18:56:29.606Z,7.20
2022-10-19T18:58:56.850Z,7.22
2022-10-19T19:01:27.547Z,7.22
2022-10-19T19:03:58.765Z,7.25
2022-10-19T19:06:28.983Z,7.27
2022-10-19T19:08:56.651Z,7.28
2022-10-19T19:11:25.117Z,7.28
2022-10-19T19:13:56.196Z,7.17
2022-10-19T19:16:23.307Z,7.18
2022-10-19T19:18:50.290Z,7.11
2022-10-19T19:21:24.747Z,7.01
2022-10-19T19:23:51.873Z,6.96
2022-10-19T19:26:19.198Z,6.89
2022-10-19T19:28:49.096Z,6.85
2022-10-19T19:31:17.442Z,6.77
2022-10-19T19:33:45.089Z,6.76
2022-10-19T19:36:12.805Z,6.71
2022-10-19T19:38:39.674Z,6.66
2022-10-19T19:41:11.688Z,6.60
2022-10-19T19:43:38.800Z,6.51
2022-10-19T19:46:09.540Z,6.45
2022-10-19T19:48:37.245Z,6.35
2022-10-19T19:51:04.138Z,6.26
2022-10-19T19:53:31.168Z,6.08
2022-10-19T19:55:57.995Z,6.10
2022-10-19T19:58:24.749Z,6.02
2022-10-19T20:00:51.510Z,5.97
2022-10-19T20:03:18.428Z,5.91
2022-10-19T20:05:45.250Z,5.88
2022-10-19T20:08:12.053Z,5.80
2022-10-19T20:10:42.209Z,5.73
2022-10-19T20:13:09.112Z,5.72
2022-10-19T20:15:39.070Z,5.74
2022-10-19T20:18:06.648Z,5.73
2022-10-19T20:20:33.533Z,5.77
2022-10-19T20:23:00.328Z,5.79
2022-10-19T20:25:27.216Z,5.80
2022-10-19T20:27:54.050Z,5.81
2022-10-19T20:30:20.897Z,5.83
2022-10-19T20:32:47.735Z,5.85
2022-10-19T20:35:14.712Z,5.81
2022-10-19T20:37:41.735Z,5.73
2022-10-19T20:40:09.187Z,5.64
2022-10-19T20:42:36.427Z,5.56
2022-10-19T20:45:03.940Z,5.50
2022-10-19T20:47:30.808Z,5.53
2022-10-19T20:49:57.697Z,5.58
2022-10-19T20:52:24.602Z,5.62
2022-10-19T20:54:51.362Z,5.67
2022-10-19T20:57:18.192Z,5.70
2022-10-19T20:59:45.811Z,5.78
2022-10-19T21:02:12.620Z,5.83
2022-10-19T21:04:39.459Z,5.90
2022-10-19T21:07:06.304Z,5.96
2022-10-19T21:09:33.255Z,6.00
2022-10-19T21:12:01.387Z,6.06
2022-10-19T21:14:29.149Z,6.08
2022-10-19T21:16:59.886Z,6.12
2022-10-19T21:19:27.733Z,6.17
2022-10-19T21:21:57.005Z,6.23
2022-10-19T21:24:25.838Z,6.24
2022-10-19T21:26:52.895Z,6.26
2022-10-19T21:29:19.910Z,6.25
2022-10-19T21:31:49.109Z,6.29
2022-10-19T21:34:24.120Z,6.28
2022-10-19T21:36:50.970Z,6.30
2022-10-19T21:39:17.844Z,6.33
2022-10-19T21:41:44.789Z,6.35
2022-10-19T21:44:11.568Z,6.37
2022-10-19T21:46:38.398Z,6.38
2022-10-19T21:49:05.214Z,6.40
2022-10-19T21:51:54.127Z,6.42
2022-10-19T21:54:22.555Z,6.41
2022-10-19T21:56:49.509Z,6.45
2022-10-19T21:59:16.766Z,6.45
2022-10-19T22:01:43.757Z,6.47
2022-10-19T22:04:15.053Z,6.43
2022-10-19T22:06:42.144Z,6.47
2022-10-19T22:09:10.094Z,6.49
2022-10-19T22:11:37.028Z,6.48
2022-10-19T22:14:03.996Z,6.48
2022-10-19T22:16:31.156Z,6.47
2022-10-19T22:18:58.027Z,6.43
2022-10-19T22:21:26.831Z,6.41
2022-10-19T22:24:04.056Z,6.37
2022-10-19T22:26:35.921Z,6.31
2022-10-19T22:29:02.988Z,6.27
2022-10-19T22:31:30.917Z,6.20
2022-10-19T22:33:57.994Z,6.18
2022-10-19T22:36:24.814Z,6.12
2022-10-19T22:38:51.653Z,6.12
2022-10-19T22:41:18.945Z,6.07
2022-10-19T22:43:45.695Z,6.00
2022-10-19T22:46:12.443Z,5.92
2022-10-19T22:48:39.188Z,5.85
2022-10-19T22:51:06.048Z,5.69
2022-10-19T22:53:32.785Z,5.61
2022-10-19T22:55:59.562Z,5.54
2022-10-19T22:58:26.298Z,5.44
2022-10-19T23:01:00.820Z,5.32
2022-10-19T23:03:27.586Z,5.33
2022-10-19T23:05:54.339Z,5.31
2022-10-19T23:08:21.073Z,5.25
2022-10-19T23:10:47.777Z,5.39
2022-10-19T23:13:15.225Z,5.49
2022-10-19T23:15:43.947Z,5.59
2022-10-19T23:18:11.253Z,5.68
2022-10-19T23:20:38.037Z,5.78
2022-10-19T23:23:04.995Z,5.86
2022-10-19T23:27:58.427Z,6.04
2022-10-19T23:30:25.176Z,6.08
2022-10-19T23:32:51.949Z,6.18
2022-10-19T23:35:18.695Z,6.24
2022-10-19T23:37:45.415Z,6.29
2022-10-19T23:40:12.453Z,6.35
2022-10-19T23:42:39.255Z,6.39
2022-10-19T23:45:06.627Z,6.39
2022-10-19T23:47:33.661Z,6.51
2022-10-19T23:50:00.620Z,6.54
2022-10-19T23:52:27.406Z,6.56
2022-10-19T23:54:54.204Z,6.58
2022-10-19T23:57:21.013Z,6.61
2022-10-19T23:59:47.835Z,6.61
